Terminal Aerodrome Forecast
Issued by NWS Wichita, KS

Home | Current Version | Previous Version | Text Only | Print | Product List | Glossary Off
Versions: 1 2 3 4 5 6 7 8 9 10 11 12 13 14 15 16

000
FTUS43 KICT 231122
TAFICT
TAF
KICT 231122Z 2312/2412 36014G20KT P6SM SCT025 BKN120
      TEMPO 2313/2315 BKN025
     FM231500 01016G23KT P6SM VCSH SCT030 BKN100
     FM231800 02018G26KT P6SM SCT120
     FM240000 01010KT P6SM SCT200
     FM240300 36007KT P6SM SKC=

USA.gov is the U.S. government's official web portal to all federal, state and local government web resources and services.